Time;durP1;ratioP1;P1;durP2;ratioP2;P2;SDS_P1;SDS_P2;PMS_P1;PMS_P2;Temp;Humidity;BMP_temperature;BMP_pressure;BME280_temperature;BME280_humidity;BME280_pressure;Samples;Min_cycle;Max_cycle;Signal;HPM_P1;HPM_P2
2022/07/06 00:02:25;;;;;;;6.03;3.53;;;;;;;14.28;61.75;102452.44;5094294;28;20126;-63
2022/07/06 00:04:50;;;;;;;4.40;3.50;;;;;;;14.21;62.03;102450.19;5131230;28;20023;-63
2022/07/06 00:07:16;;;;;;;4.00;3.42;;;;;;;14.17;62.28;102452.13;5111372;28;20035;-63
2022/07/06 00:09:43;;;;;;;3.75;3.45;;;;;;;14.20;62.01;102461.81;5129394;28;20031;-63
2022/07/06 00:12:09;;;;;;;6.18;3.67;;;;;;;14.02;62.68;102450.25;5130039;28;20106;-63
2022/07/06 00:14:35;;;;;;;5.18;3.55;;;;;;;14.02;62.89;102453.78;5130873;28;20072;-63
2022/07/06 00:17:01;;;;;;;4.22;3.42;;;;;;;14.11;62.80;102459.63;5130720;28;20377;-63
2022/07/06 00:19:28;;;;;;;4.68;3.83;;;;;;;13.88;63.17;102439.41;5130186;28;20027;-63
2022/07/06 00:21:54;;;;;;;6.05;3.97;;;;;;;13.95;63.25;102452.38;5129806;28;20023;-63
2022/07/06 00:24:20;;;;;;;8.43;4.18;;;;;;;13.94;63.52;102456.03;5110610;28;20482;-63
2022/07/06 00:26:48;;;;;;;7.68;4.22;;;;;;;13.93;63.56;102458.75;5085857;28;20066;-63
2022/07/06 00:29:14;;;;;;;6.93;3.75;;;;;;;14.04;63.18;102459.06;5112894;28;20023;-63
2022/07/06 00:31:42;;;;;;;3.70;3.38;;;;;;;13.96;63.44;102462.13;5129024;28;20059;-63
2022/07/06 00:34:08;;;;;;;4.78;3.67;;;;;;;14.02;63.44;102452.94;5110295;27;20165;-63
2022/07/06 00:36:33;;;;;;;4.55;3.42;;;;;;;13.97;63.47;102460.31;5097473;27;20115;-63
2022/07/06 00:38:59;;;;;;;5.47;3.78;;;;;;;13.86;63.95;102453.72;5098721;27;20031;-63
2022/07/06 00:41:25;;;;;;;5.53;3.63;;;;;;;13.78;63.71;102439.00;5116845;27;20117;-63
2022/07/06 00:43:56;;;;;;;4.57;3.75;;;;;;;13.90;63.69;102456.25;5135139;27;20533;-63
2022/07/06 00:46:32;;;;;;;4.95;4.20;;;;;;;13.76;64.33;102457.78;5134532;27;20035;-62
2022/07/06 00:48:57;;;;;;;4.90;3.70;;;;;;;13.76;64.33;102455.13;5134067;27;20023;-63
2022/07/06 00:51:30;;;;;;;5.35;4.10;;;;;;;13.62;64.66;102455.84;5134184;27;20105;-63
2022/07/06 00:53:59;;;;;;;4.93;3.95;;;;;;;13.70;64.54;102452.75;5135321;27;20144;-63
2022/07/06 00:56:25;;;;;;;4.38;3.97;;;;;;;13.51;65.03;102462.66;5135018;27;20019;-63
2022/07/06 00:58:51;;;;;;;9.75;4.63;;;;;;;13.46;65.05;102462.88;5133511;27;20054;-63
2022/07/06 01:01:16;;;;;;;7.45;4.75;;;;;;;13.40;65.37;102460.50;5115249;27;20035;-63
2022/07/06 01:03:41;;;;;;;5.13;4.60;;;;;;;13.41;65.47;102454.22;5113885;27;20030;-63
2022/07/06 01:06:07;;;;;;;5.82;4.97;;;;;;;13.32;65.51;102455.53;5115261;27;20043;-63
2022/07/06 01:08:32;;;;;;;5.63;4.88;;;;;;;13.40;65.52;102460.50;5133434;27;20106;-63
2022/07/06 01:10:58;;;;;;;6.50;4.88;;;;;;;13.34;65.54;102456.31;5115162;27;20039;-63
2022/07/06 01:13:25;;;;;;;5.60;4.93;;;;;;;13.30;65.74;102452.09;5134685;27;20114;-63
2022/07/06 01:15:51;;;;;;;7.70;5.25;;;;;;;13.32;65.36;102455.53;5134280;27;20057;-63
2022/07/06 01:18:16;;;;;;;6.05;4.55;;;;;;;13.18;65.73;102437.47;5131909;27;20469;-63
2022/07/06 01:20:42;;;;;;;6.22;4.70;;;;;;;13.25;65.77;102454.09;5115266;27;20034;-63
2022/07/06 01:23:08;;;;;;;9.68;5.40;;;;;;;13.24;65.84;102449.69;5113607;27;20027;-65
2022/07/06 01:25:34;;;;;;;6.15;5.00;;;;;;;13.08;66.16;102448.66;5114013;27;20390;-62
2022/07/06 01:28:00;;;;;;;7.63;5.20;;;;;;;13.13;65.96;102454.66;5133649;27;20052;-62
2022/07/06 01:30:25;;;;;;;7.90;5.45;;;;;;;13.08;66.37;102444.19;5113782;27;20072;-62
2022/07/06 01:32:51;;;;;;;7.05;5.13;;;;;;;13.02;66.42;102451.63;5133487;27;20019;-62
2022/07/06 01:35:16;;;;;;;8.10;5.50;;;;;;;12.99;66.66;102454.47;5114699;27;20057;-62
2022/07/06 01:37:42;;;;;;;6.53;5.57;;;;;;;12.82;67.46;102447.22;5114587;27;20087;-65
2022/07/06 01:40:09;;;;;;;6.75;5.70;;;;;;;12.90;66.91;102453.94;5114592;27;20401;-65
2022/07/06 01:42:35;;;;;;;8.35;5.80;;;;;;;12.87;67.45;102455.91;5097878;27;20385;-65
2022/07/06 01:45:04;;;;;;;8.35;5.68;;;;;;;12.83;67.17;102457.00;5131978;27;20043;-65
2022/07/06 01:47:29;;;;;;;6.90;6.20;;;;;;;12.89;67.16;102456.69;5130483;27;20558;-65
2022/07/06 01:49:59;;;;;;;6.70;5.93;;;;;;;12.90;66.94;102453.94;5133010;27;20039;-65
2022/07/06 01:52:25;;;;;;;10.05;6.05;;;;;;;12.80;67.32;102446.47;5130128;27;20062;-65
2022/07/06 01:54:50;;;;;;;8.10;5.85;;;;;;;12.84;67.52;102456.03;5115117;27;20105;-64
2022/07/06 01:57:18;;;;;;;6.53;5.85;;;;;;;12.82;67.25;102445.41;5115061;27;20072;-65
2022/07/06 01:59:43;;;;;;;11.15;6.32;;;;;;;12.77;67.54;102442.13;5111436;27;20100;-65
2022/07/06 02:02:09;;;;;;;10.25;6.95;;;;;;;12.72;67.60;102450.34;5114620;27;20023;-65
2022/07/06 02:04:34;;;;;;;8.98;6.35;;;;;;;12.66;67.86;102447.94;5079977;27;21003;-64
2022/07/06 02:07:01;;;;;;;9.98;5.82;;;;;;;12.70;67.60;102451.34;5114304;27;20157;-65
2022/07/06 02:09:27;;;;;;;6.28;5.65;;;;;;;12.68;67.87;102455.91;5132271;27;20034;-65
2022/07/06 02:11:52;;;;;;;8.55;5.88;;;;;;;12.53;68.69;102457.47;5133483;27;20030;-65
2022/07/06 02:14:18;;;;;;;6.90;6.13;;;;;;;12.54;68.61;102458.34;5114640;27;20027;-64
2022/07/06 02:16:44;;;;;;;11.13;6.25;;;;;;;12.47;69.03;102452.38;5114778;27;20034;-64
2022/07/06 02:19:10;;;;;;;8.73;6.13;;;;;;;12.42;69.20;102449.06;5114894;27;20444;-65
2022/07/06 02:21:35;;;;;;;6.95;6.00;;;;;;;12.49;68.89;102454.06;5113525;27;20027;-64
2022/07/06 02:24:00;;;;;;;9.05;6.18;;;;;;;12.52;69.00;102447.72;5096807;27;20039;-65
2022/07/06 02:26:26;;;;;;;8.50;6.13;;;;;;;12.43;69.12;102448.13;5131177;27;20192;-62
2022/07/06 02:28:52;;;;;;;7.57;6.22;;;;;;;12.51;68.76;102448.66;5131377;27;20038;-62
2022/07/06 02:31:18;;;;;;;9.23;6.75;;;;;;;12.42;69.13;102449.06;5114111;27;20509;-62
2022/07/06 02:33:44;;;;;;;6.65;5.57;;;;;;;12.41;68.79;102442.88;5113508;27;20061;-62
2022/07/06 02:36:10;;;;;;;10.35;7.28;;;;;;;12.32;69.28;102448.59;5131988;27;20385;-62
2022/07/06 02:38:37;;;;;;;7.15;6.40;;;;;;;12.30;69.28;102441.63;5114433;27;20027;-62
2022/07/06 02:41:03;;;;;;;11.18;6.75;;;;;;;12.28;69.64;102447.03;5113561;27;20129;-62
2022/07/06 02:43:28;;;;;;;7.90;6.47;;;;;;;12.33;69.26;102445.03;5097217;27;20114;-62
2022/07/06 02:45:54;;;;;;;10.15;6.72;;;;;;;12.32;69.80;102442.41;5130575;27;20062;-62
2022/07/06 02:48:21;;;;;;;8.32;6.20;;;;;;;12.33;69.37;102449.50;5112688;27;20074;-65
2022/07/06 02:50:49;;;;;;;11.50;6.63;;;;;;;12.26;69.75;102447.09;5132046;27;20486;-64
2022/07/06 02:53:15;;;;;;;8.57;6.72;;;;;;;12.17;70.00;102444.81;5131261;27;20423;-64
2022/07/06 02:55:41;;;;;;;9.52;6.32;;;;;;;12.26;69.94;102448.88;5113726;27;20031;-65
2022/07/06 02:58:09;;;;;;;9.43;6.78;;;;;;;12.30;69.86;102450.50;5130359;27;20489;-65
2022/07/06 03:00:34;;;;;;;8.95;6.57;;;;;;;12.20;70.24;102458.00;5130852;27;20098;-65
2022/07/06 03:03:00;;;;;;;10.93;6.40;;;;;;;12.23;70.04;102459.69;5082941;27;20172;-65
2022/07/06 03:05:26;;;;;;;7.88;6.13;;;;;;;12.21;70.07;102464.25;5130148;27;20052;-64
2022/07/06 03:07:51;;;;;;;7.65;6.30;;;;;;;12.24;69.99;102448.97;5078707;27;20131;-64
2022/07/06 03:10:17;;;;;;;8.75;6.75;;;;;;;12.16;70.36;102451.09;5095099;27;20031;-65
2022/07/06 03:12:43;;;;;;;9.57;6.40;;;;;;;12.28;70.21;102457.69;5130668;27;20026;-64
2022/07/06 03:15:10;;;;;;;8.57;6.05;;;;;;;12.08;70.91;102455.91;5095979;27;20144;-64
2022/07/06 03:17:38;;;;;;;9.73;6.22;;;;;;;12.24;70.17;102466.78;5112273;27;20030;-64
2022/07/06 03:20:05;;;;;;;13.48;6.60;;;;;;;12.12;70.50;102465.50;5132241;27;20031;-64
2022/07/06 03:22:31;;;;;;;7.10;6.40;;;;;;;12.13;70.70;102458.38;5129964;27;20035;-64
2022/07/06 03:24:56;;;;;;;7.78;6.20;;;;;;;12.17;70.78;102470.63;5131925;27;20115;-64
2022/07/06 03:27:25;;;;;;;8.20;6.47;;;;;;;12.14;70.83;102470.75;5111844;27;20027;-64
2022/07/06 03:29:50;;;;;;;7.28;5.95;;;;;;;12.11;71.12;102470.91;5130548;27;20035;-64
2022/07/06 03:32:16;;;;;;;7.50;6.30;;;;;;;12.17;70.74;102465.28;5113026;27;20068;-62
2022/07/06 03:34:42;;;;;;;9.25;6.38;;;;;;;12.14;70.79;102460.97;5130592;27;20023;-62
2022/07/06 03:37:08;;;;;;;7.47;6.65;;;;;;;12.14;70.92;102468.09;5112882;27;20015;-62
2022/07/06 03:39:33;;;;;;;7.10;6.32;;;;;;;12.13;70.82;102459.22;5095996;28;20065;-62
2022/07/06 03:41:59;;;;;;;8.27;6.07;;;;;;;12.08;71.06;102465.69;5130291;27;20108;-62
2022/07/06 03:44:29;;;;;;;8.52;6.95;;;;;;;12.05;71.23;102464.88;5113085;27;20053;-62
2022/07/06 03:46:55;;;;;;;11.70;6.60;;;;;;;12.05;71.71;102461.34;5113976;28;20455;-62
2022/07/06 03:49:22;;;;;;;7.85;6.13;;;;;;;12.08;71.43;102466.56;5128176;28;20023;-62
2022/07/06 03:51:48;;;;;;;11.40;6.32;;;;;;;12.08;71.78;102463.03;5112286;28;20106;-62
2022/07/06 03:54:13;;;;;;;8.00;7.07;;;;;;;12.08;71.69;102465.69;5113354;28;20359;-64
2022/07/06 03:56:39;;;;;;;8.07;6.07;;;;;;;12.09;71.94;102465.66;5094150;28;20039;-64
2022/07/06 03:59:05;;;;;;;8.32;6.40;;;;;;;12.01;71.94;102463.28;5131431;28;20084;-62
2022/07/06 04:01:30;;;;;;;7.82;6.45;;;;;;;12.04;72.18;102457.84;5113212;28;20114;-62
2022/07/06 04:03:56;;;;;;;7.30;6.55;;;;;;;12.03;72.19;102457.91;5131495;28;20027;-62
2022/07/06 04:06:22;;;;;;;8.57;7.00;;;;;;;12.03;72.15;102460.59;5095686;28;20027;-63
2022/07/06 04:08:50;;;;;;;8.75;6.35;;;;;;;12.02;72.27;102458.81;5112271;27;20142;-62
2022/07/06 04:11:19;;;;;;;7.90;7.00;;;;;;;12.08;72.35;102463.03;5116968;27;20023;-62
2022/07/06 04:13:44;;;;;;;8.02;6.78;;;;;;;12.08;72.26;102457.69;5134178;27;20026;-62
2022/07/06 04:16:10;;;;;;;7.93;6.55;;;;;;;12.09;72.43;102451.41;5116162;27;20084;-65
2022/07/06 04:18:38;;;;;;;8.52;6.90;;;;;;;12.04;72.51;102455.16;5135434;27;20476;-62
2022/07/06 04:21:03;;;;;;;7.38;6.05;;;;;;;12.15;72.06;102452.03;5135055;27;20027;-62
2022/07/06 04:23:29;;;;;;;9.13;6.95;;;;;;;12.14;72.29;102442.28;5115556;27;20027;-63
2022/07/06 04:25:55;;;;;;;7.03;6.30;;;;;;;12.21;72.10;102456.25;5135486;27;20018;-62
2022/07/06 04:28:21;;;;;;;11.02;7.60;;;;;;;12.17;71.69;102443.97;5115830;27;20027;-63
2022/07/06 04:30:47;;;;;;;8.45;6.35;;;;;;;12.15;72.34;102446.72;5134935;27;20038;-62
2022/07/06 04:33:14;;;;;;;10.55;6.88;;;;;;;12.22;72.34;102455.28;5116161;27;20031;-62
2022/07/06 04:35:40;;;;;;;10.65;6.75;;;;;;;12.20;72.27;102442.00;5134869;27;20019;-62
2022/07/06 04:38:05;;;;;;;9.05;7.22;;;;;;;12.28;72.42;102439.00;5133518;27;20504;-63
2022/07/06 04:40:33;;;;;;;11.38;7.15;;;;;;;12.25;72.92;102444.50;5116482;27;20087;-62
2022/07/06 04:42:59;;;;;;;7.90;6.95;;;;;;;12.35;72.31;102443.13;5132891;27;20574;-63
2022/07/06 04:45:25;;;;;;;8.50;6.95;;;;;;;12.36;72.44;102441.34;5133716;27;20047;-62
2022/07/06 04:47:50;;;;;;;8.52;7.40;;;;;;;12.33;72.55;102434.34;5111960;27;20031;-62
2022/07/06 04:50:16;;;;;;;8.43;7.22;;;;;;;12.44;72.34;102440.06;5135235;27;20023;-62
2022/07/06 04:52:45;;;;;;;11.30;7.18;;;;;;;12.57;72.46;102453.72;5116203;27;20027;-63
2022/07/06 04:55:11;;;;;;;11.07;6.80;;;;;;;12.59;72.65;102446.50;5116503;27;20035;-63
2022/07/06 04:57:36;;;;;;;8.93;7.55;;;;;;;12.64;72.02;102443.63;5134684;27;20036;-62
2022/07/06 05:00:04;;;;;;;7.72;6.45;;;;;;;12.68;72.47;102448.75;5116312;27;20102;-63
2022/07/06 05:02:30;;;;;;;7.55;6.88;;;;;;;12.79;72.50;102447.38;5134871;27;20487;-63
2022/07/06 05:04:55;;;;;;;9.57;7.30;;;;;;;12.77;73.03;102446.59;5116532;27;20054;-63
2022/07/06 05:07:20;;;;;;;8.15;7.03;;;;;;;12.83;72.91;102452.50;5114822;27;20062;-64
2022/07/06 05:09:46;;;;;;;7.68;6.88;;;;;;;13.03;72.05;102450.69;5115213;27;20386;-63
2022/07/06 05:12:12;;;;;;;8.70;6.63;;;;;;;13.10;72.44;102452.16;5133521;27;20026;-63
2022/07/06 05:14:37;;;;;;;8.52;6.60;;;;;;;13.19;72.43;102460.56;5113111;27;20031;-63
2022/07/06 05:17:03;;;;;;;10.27;6.07;;;;;;;13.34;72.49;102461.66;5131504;27;20050;-63
2022/07/06 05:19:28;;;;;;;7.53;6.28;;;;;;;13.41;72.51;102464.91;5131723;27;20027;-63
2022/07/06 05:21:54;;;;;;;6.50;5.88;;;;;;;13.60;71.84;102459.53;5114661;27;20051;-63
2022/07/06 05:24:19;;;;;;;7.05;6.35;;;;;;;13.63;72.28;102470.06;5115738;27;20031;-63
2022/07/06 05:26:48;;;;;;;7.57;5.60;;;;;;;13.79;71.98;102460.31;5133526;27;20359;-63
2022/07/06 05:29:13;;;;;;;8.43;5.47;;;;;;;13.93;71.84;102470.31;5115146;27;20493;-63
2022/07/06 05:31:40;;;;;;;8.32;5.50;;;;;;;14.03;71.46;102476.06;5114862;27;20030;-63
2022/07/06 05:34:05;;;;;;;6.72;5.55;;;;;;;14.12;70.91;102467.56;5115000;27;20035;-63
2022/07/06 05:36:30;;;;;;;7.25;5.43;;;;;;;14.20;70.67;102465.34;5091239;27;20031;-63
2022/07/06 05:38:56;;;;;;;12.43;5.07;;;;;;;14.29;69.69;102466.66;5133698;27;20503;-63
2022/07/06 05:41:24;;;;;;;10.88;4.90;;;;;;;14.41;69.95;102460.69;5115137;27;20034;-63
2022/07/06 05:43:49;;;;;;;9.23;5.00;;;;;;;14.51;69.73;102471.75;5133097;27;20079;-63
2022/07/06 05:46:15;;;;;;;6.13;4.35;;;;;;;14.59;70.03;102472.25;5114703;27;20043;-63
2022/07/06 05:51:27;;;;;;;6.70;4.50;;;;;;;14.83;69.18;102478.09;5131674;27;20043;-65
2022/07/06 05:53:52;;;;;;;5.90;4.60;;;;;;;14.93;68.97;102473.94;5115297;27;20023;-65
2022/07/06 05:56:20;;;;;;;5.10;4.18;;;;;;;15.08;68.63;102476.72;5098273;27;20069;-65
2022/07/06 05:58:45;;;;;;;6.22;3.92;;;;;;;15.15;67.55;102478.97;5093918;27;20027;-65
2022/07/06 06:01:11;;;;;;;6.63;4.35;;;;;;;15.25;68.26;102482.00;5115082;27;20103;-65
2022/07/06 06:03:36;;;;;;;6.40;3.97;;;;;;;15.38;68.16;102471.44;5114548;27;20038;-65
2022/07/06 06:06:05;;;;;;;6.18;3.60;;;;;;;15.49;67.15;102484.22;5128667;27;20070;-65
2022/07/06 06:08:32;;;;;;;6.18;3.70;;;;;;;15.54;66.33;102483.00;5112126;27;20651;-65
2022/07/06 06:10:58;;;;;;;3.85;3.38;;;;;;;15.56;65.62;102482.91;5127513;27;20031;-65
2022/07/06 06:13:23;;;;;;;4.50;3.55;;;;;;;15.67;66.14;102478.69;5097456;27;20033;-65
2022/07/06 06:15:51;;;;;;;6.82;3.50;;;;;;;15.77;66.71;102483.53;5113894;27;20031;-66
2022/07/06 06:18:19;;;;;;;5.07;3.72;;;;;;;15.80;66.98;102481.53;5114592;27;20116;-66
2022/07/06 06:20:45;;;;;;;6.50;3.85;;;;;;;15.81;65.71;102480.56;5112041;27;20439;-66
2022/07/06 06:23:11;;;;;;;5.20;3.20;;;;;;;15.81;65.49;102488.59;5112700;27;20076;-65
2022/07/06 06:25:40;;;;;;;4.80;3.22;;;;;;;15.82;65.73;102493.00;5113102;27;20026;-66
2022/07/06 06:28:07;;;;;;;4.78;3.72;;;;;;;15.81;65.29;102487.75;5132419;27;20466;-66
2022/07/06 06:30:33;;;;;;;7.30;3.30;;;;;;;15.69;65.73;102475.91;5113691;27;20058;-66
2022/07/06 06:33:12;;;;;;;5.18;3.35;;;;;;;15.78;65.67;102483.44;5128973;27;20057;-65
2022/07/06 06:35:41;;;;;;;5.93;3.15;;;;;;;15.76;66.06;102489.84;5131833;27;20470;-66
2022/07/06 06:38:07;;;;;;;;;;;;;;;15.82;65.91;102487.66;5113867;27;20019;-65
2022/07/06 06:40:32;;;;;;;5.63;2.95;;;;;;;15.64;66.28;102492.25;5110173;27;20286;-65
2022/07/06 06:42:58;;;;;;;6.15;3.17;;;;;;;15.52;66.33;102495.63;5111118;27;20035;-67
2022/07/06 06:45:24;;;;;;;4.05;2.70;;;;;;;15.52;66.15;102487.59;5130128;27;20042;-64
2022/07/06 06:47:50;;;;;;;5.32;3.20;;;;;;;15.52;66.80;102502.81;5111667;27;20507;-66
2022/07/06 06:50:17;;;;;;;4.78;3.33;;;;;;;15.47;67.00;102500.41;5132055;27;20034;-65
2022/07/06 06:52:42;;;;;;;4.20;2.88;;;;;;;15.48;67.20;102495.91;5130572;27;20480;-65
2022/07/06 06:55:08;;;;;;;3.65;3.13;;;;;;;15.55;67.55;102498.13;5113884;27;20035;-65
2022/07/06 06:57:34;;;;;;;5.68;3.38;;;;;;;15.60;66.97;102501.44;5113704;27;20027;-66
2022/07/06 06:59:59;;;;;;;3.83;2.97;;;;;;;15.75;66.50;102504.22;5131952;27;20398;-66
2022/07/06 07:02:25;;;;;;;3.50;3.15;;;;;;;15.76;66.66;102503.25;5132600;27;20402;-65
2022/07/06 07:04:50;;;;;;;5.07;3.50;;;;;;;15.80;66.49;102503.00;5132594;27;20028;-65
2022/07/06 07:07:16;;;;;;;7.50;3.70;;;;;;;15.92;65.85;102503.22;5106792;27;20030;-65
2022/07/06 07:09:44;;;;;;;5.10;2.78;;;;;;;16.05;65.63;102491.66;5131538;27;20539;-66
2022/07/06 07:12:14;;;;;;;5.07;2.75;;;;;;;16.20;64.53;102499.75;5131340;27;20039;-66
2022/07/06 07:14:40;;;;;;;3.63;2.60;;;;;;;16.30;64.69;102506.31;5114391;27;20550;-67
2022/07/06 07:17:06;;;;;;;4.18;2.20;;;;;;;16.40;63.82;102499.41;5131933;27;20023;-72
2022/07/06 07:19:31;;;;;;;2.80;2.00;;;;;;;16.48;62.42;102507.84;5112688;27;20027;-67
2022/07/06 07:22:00;;;;;;;7.10;1.85;;;;;;;16.56;60.40;102504.72;5130893;27;20438;-58
2022/07/06 07:24:26;;;;;;;3.58;1.77;;;;;;;16.58;60.39;102503.63;5132122;27;20415;-60
2022/07/06 07:26:54;;;;;;;3.08;1.95;;;;;;;16.71;60.10;102501.06;5131372;27;20083;-60
2022/07/06 07:29:20;;;;;;;3.40;1.92;;;;;;;16.83;59.56;102506.66;5131773;27;20019;-59
2022/07/06 07:31:49;;;;;;;2.30;1.40;;;;;;;16.86;59.72;102499.25;5112051;27;20027;-59
2022/07/06 07:34:17;;;;;;;2.53;1.30;;;;;;;16.93;59.43;102505.97;5131564;27;20019;-60
2022/07/06 07:36:43;;;;;;;1.35;1.20;;;;;;;17.02;58.36;102505.38;5130517;27;20478;-59
2022/07/06 07:39:08;;;;;;;4.72;1.52;;;;;;;17.11;58.11;102508.44;5094521;27;20045;-59
2022/07/06 07:41:34;;;;;;;2.05;1.30;;;;;;;17.14;55.64;102506.41;5112571;27;20035;-60
2022/07/06 07:43:59;;;;;;;1.42;1.15;;;;;;;17.33;55.94;102507.94;5131315;27;20082;-59
2022/07/06 07:46:25;;;;;;;1.63;1.20;;;;;;;17.54;54.53;102509.22;5095960;28;20497;-59
2022/07/06 07:48:50;;;;;;;2.85;1.23;;;;;;;17.62;53.24;102498.81;5095790;28;20046;-59
2022/07/06 07:51:16;;;;;;;2.95;1.63;;;;;;;17.84;53.73;102519.78;5112178;28;20082;-59
2022/07/06 07:53:44;;;;;;;2.15;1.42;;;;;;;18.03;53.00;102508.66;5112765;28;20499;-59
2022/07/06 07:56:10;;;;;;;1.80;1.27;;;;;;;18.16;51.00;102508.66;5113088;28;20058;-59
2022/07/06 07:58:36;;;;;;;2.80;1.25;;;;;;;18.29;49.65;102493.38;5131283;28;20525;-59
2022/07/06 08:01:01;;;;;;;1.85;1.25;;;;;;;18.48;50.42;102505.56;5095477;28;20049;-59
2022/07/06 08:03:27;;;;;;;1.88;1.35;;;;;;;18.54;49.57;102502.44;5096067;28;20027;-59
2022/07/06 08:05:52;;;;;;;2.17;1.10;;;;;;;18.60;49.38;102502.00;5111761;28;20032;-58
2022/07/06 08:08:18;;;;;;;3.00;1.38;;;;;;;18.65;49.34;102494.47;5130935;28;20397;-60
2022/07/06 08:10:46;;;;;;;1.55;1.02;;;;;;;18.79;49.73;102488.97;5130337;28;20036;-61
2022/07/06 08:13:14;;;;;;;2.65;1.15;;;;;;;18.89;48.07;102499.97;5131077;28;20031;-61
2022/07/06 08:15:42;;;;;;;2.63;1.33;;;;;;;18.90;48.92;102487.34;5113584;28;20031;-57
2022/07/06 08:18:09;;;;;;;1.42;1.20;;;;;;;19.01;48.91;102495.53;5113619;28;20027;-57
2022/07/06 08:20:37;;;;;;;2.40;1.50;;;;;;;19.08;50.52;102502.19;5131491;28;20060;-61
2022/07/06 08:23:04;;;;;;;2.30;1.30;;;;;;;19.16;48.81;102502.50;5131213;28;20030;-60
2022/07/06 08:25:30;;;;;;;1.60;1.20;;;;;;;19.31;48.08;102505.91;5113145;28;20046;-60
2022/07/06 08:27:56;;;;;;;2.13;1.48;;;;;;;19.23;48.85;102492.97;5131386;28;20011;-59
2022/07/06 08:30:22;;;;;;;2.85;1.25;;;;;;;19.35;48.70;102498.44;5131112;27;20034;-60
2022/07/06 08:32:47;;;;;;;2.83;1.30;;;;;;;19.40;47.65;102496.28;5079187;28;20356;-60
2022/07/06 08:35:15;;;;;;;1.92;1.27;;;;;;;19.52;49.46;102488.09;5131115;28;20420;-60
2022/07/06 08:37:41;;;;;;;2.63;1.48;;;;;;;19.70;49.01;102485.03;5111985;28;20020;-60
2022/07/06 08:40:07;;;;;;;2.30;1.40;;;;;;;19.80;49.35;102482.53;5113143;28;20497;-60
2022/07/06 08:42:34;;;;;;;3.92;1.15;;;;;;;19.92;49.17;102487.84;5131186;28;20023;-60
2022/07/06 08:45:04;;;;;;;2.67;1.00;;;;;;;19.72;46.50;102486.66;5131309;28;20063;-60
2022/07/06 08:47:34;;;;;;;2.90;1.10;;;;;;;19.38;46.96;102493.66;5130789;28;20027;-60
2022/07/06 08:50:01;;;;;;;2.90;1.20;;;;;;;19.58;47.74;102484.09;5111379;28;20027;-60
2022/07/06 08:52:27;;;;;;;1.98;1.25;;;;;;;19.70;47.89;102474.22;5112542;28;20069;-60
2022/07/06 08:54:53;;;;;;;2.28;1.30;;;;;;;19.91;46.22;102479.84;5113185;27;20019;-60
2022/07/06 08:57:19;;;;;;;2.85;1.30;;;;;;;19.93;47.01;102481.44;5115237;27;20022;-60
2022/07/06 08:59:45;;;;;;;6.03;1.50;;;;;;;19.87;46.32;102486.47;5116542;27;20027;-60
2022/07/06 09:02:14;;;;;;;3.13;1.13;;;;;;;19.64;47.48;102485.47;5134725;27;20027;-59
2022/07/06 09:04:42;;;;;;;3.30;1.38;;;;;;;19.46;48.14;102490.41;5116993;27;20031;-60
2022/07/06 09:07:08;;;;;;;3.27;1.10;;;;;;;19.29;48.54;102480.84;5134129;27;20084;-58
2022/07/06 09:09:35;;;;;;;1.38;1.00;;;;;;;19.00;49.00;102469.50;5116283;27;20023;-59
2022/07/06 09:12:01;;;;;;;2.22;1.27;;;;;;;19.27;49.43;102483.69;5134725;27;20057;-60
2022/07/06 09:14:28;;;;;;;4.15;1.20;;;;;;;19.55;48.35;102468.13;5114197;27;20027;-60
2022/07/06 09:17:06;;;;;;;8.77;1.10;;;;;;;19.76;48.86;102473.75;5134066;27;20363;-60
2022/07/06 09:19:34;;;;;;;1.63;1.30;;;;;;;20.02;48.95;102476.31;5112039;27;20050;-60
2022/07/06 09:22:00;;;;;;;3.17;1.48;;;;;;;19.90;48.36;102470.88;5133829;27;20269;-60
2022/07/06 09:24:26;;;;;;;2.85;1.20;;;;;;;20.09;46.80;102473.03;5116080;27;20440;-60
2022/07/06 09:26:56;;;;;;;2.90;1.10;;;;;;;20.36;48.62;102479.97;5132731;27;20028;-60
2022/07/06 09:29:31;;;;;;;1.58;1.10;;;;;;;20.69;48.40;102479.16;5131813;27;20958;-60
2022/07/06 09:32:02;;;;;;;2.17;1.00;;;;;;;20.94;44.71;102480.75;5114052;27;20031;-60
2022/07/06 09:34:44;;;;;;;3.10;1.20;;;;;;;20.78;46.16;102485.66;5130753;27;20031;-60
2022/07/06 09:37:11;;;;;;;1.50;1.13;;;;;;;20.45;44.17;102486.50;5131909;27;20051;-59
2022/07/06 09:39:39;;;;;;;3.83;1.10;;;;;;;20.51;44.16;102483.31;5113061;27;20114;-59
2022/07/06 09:42:09;;;;;;;2.47;1.30;;;;;;;20.61;45.67;102482.47;5133130;27;20027;-59
2022/07/06 09:44:37;;;;;;;4.32;1.20;;;;;;;20.57;44.33;102485.53;5115239;27;20027;-59
2022/07/06 09:47:05;;;;;;;6.95;1.45;;;;;;;20.66;44.79;102484.81;5109875;27;20196;-59
2022/07/06 09:49:31;;;;;;;2.65;1.10;;;;;;;20.39;45.39;102491.38;5133278;27;20039;-59
2022/07/06 09:52:15;;;;;;;2.03;1.15;;;;;;;20.37;44.99;102485.22;5131359;27;20035;-59
2022/07/06 09:54:41;;;;;;;3.03;1.27;;;;;;;20.23;46.62;102484.59;5097545;27;20027;-59
2022/07/06 09:57:07;;;;;;;4.30;1.23;;;;;;;20.11;44.84;102481.84;5109988;27;20109;-59
2022/07/06 09:59:35;;;;;;;3.13;0.90;;;;;;;20.11;46.63;102481.00;5113691;27;20114;-59
2022/07/06 10:02:10;;;;;;;1.98;1.08;;;;;;;20.32;46.55;102487.44;5112854;27;20056;-59
2022/07/06 10:04:36;;;;;;;4.45;1.30;;;;;;;20.28;44.52;102480.56;5111709;27;20114;-59
2022/07/06 10:07:03;;;;;;;4.13;1.20;;;;;;;20.29;44.83;102489.50;5130595;27;20115;-59
2022/07/06 10:09:30;;;;;;;1.65;0.93;;;;;;;20.28;45.58;102477.00;5112540;27;20064;-59
2022/07/06 10:11:57;;;;;;;3.30;1.02;;;;;;;20.41;44.67;102485.84;5114645;27;20057;-59
2022/07/06 10:14:25;;;;;;;2.20;1.00;;;;;;;20.28;45.58;102495.91;5113299;27;20031;-59
2022/07/06 10:16:51;;;;;;;4.10;1.00;;;;;;;20.46;44.92;102494.47;5130581;27;20018;-59
2022/07/06 10:19:21;;;;;;;2.53;1.20;;;;;;;20.68;45.69;102500.88;5112970;27;21699;-59
2022/07/06 10:21:46;;;;;;;1.80;1.02;;;;;;;20.64;45.11;102502.97;5111409;27;20108;-59
2022/07/06 10:24:13;;;;;;;2.97;1.20;;;;;;;20.43;44.02;102483.88;5110547;27;20033;-59
2022/07/06 10:26:40;;;;;;;7.13;1.50;;;;;;;20.52;44.36;102490.41;5129444;27;20028;-59
2022/07/06 10:29:06;;;;;;;3.28;1.17;;;;;;;20.33;44.23;102491.00;5114130;27;20027;-59
2022/07/06 10:31:34;;;;;;;2.25;1.05;;;;;;;19.98;44.95;102500.00;5130715;27;20042;-59
2022/07/06 10:34:01;;;;;;;2.30;1.10;;;;;;;19.96;45.11;102497.41;5129925;27;20016;-59
2022/07/06 10:36:28;;;;;;;1.65;0.95;;;;;;;19.94;44.75;102482.28;5113567;27;20382;-59
2022/07/06 10:38:54;;;;;;;3.05;1.20;;;;;;;20.18;44.59;102491.22;5130828;27;20027;-59
2022/07/06 10:41:31;;;;;;;2.28;1.00;;;;;;;20.34;44.15;102496.28;5112479;27;20023;-59
2022/07/06 10:43:57;;;;;;;3.70;1.10;;;;;;;20.49;43.86;102486.09;5129238;27;21705;-58
2022/07/06 10:46:27;;;;;;;2.97;1.02;;;;;;;20.47;42.58;102496.19;5112956;27;20084;-59
2022/07/06 10:48:56;;;;;;;2.22;1.00;;;;;;;20.73;41.70;102488.72;5131103;27;20031;-59
2022/07/06 10:51:28;;;;;;;4.43;1.30;;;;;;;20.94;44.45;102493.41;5112989;27;20019;-59
2022/07/06 10:54:03;;;;;;;2.78;0.80;;;;;;;21.07;41.56;102488.72;5113603;27;20035;-59
2022/07/06 10:56:33;;;;;;;3.10;1.05;;;;;;;21.23;41.99;102486.47;5129851;27;20058;-59
2022/07/06 10:59:02;;;;;;;1.70;1.13;;;;;;;21.37;41.41;102485.38;5112852;27;20033;-59
2022/07/06 11:01:30;;;;;;;3.38;1.10;;;;;;;21.29;42.99;102487.81;5131816;27;20031;-59
2022/07/06 11:03:55;;;;;;;4.75;1.15;;;;;;;21.35;41.98;102481.88;5112663;27;20039;-59
2022/07/06 11:06:26;;;;;;;1.65;0.93;;;;;;;21.37;43.92;102474.53;5131534;27;20092;-59
2022/07/06 11:08:59;;;;;;;2.83;1.20;;;;;;;21.57;40.46;102474.72;5125848;27;20028;-59
2022/07/06 11:11:31;;;;;;;2.80;1.30;;;;;;;21.62;41.80;102477.88;5131485;27;20026;-59
2022/07/06 11:14:07;;;;;;;1.92;1.02;;;;;;;21.83;40.17;102475.25;5109466;27;20083;-59
2022/07/06 11:16:36;;;;;;;1.50;0.77;;;;;;;21.76;40.97;102472.16;5131941;27;20054;-59
2022/07/06 11:19:08;;;;;;;1.58;0.80;;;;;;;21.85;40.79;102478.66;5106110;27;20065;-59
2022/07/06 11:21:43;;;;;;;2.17;1.00;;;;;;;21.73;38.69;102480.56;5113337;27;20035;-59
2022/07/06 11:24:16;;;;;;;2.45;1.00;;;;;;;21.89;39.45;102482.84;5132474;27;20439;-59
2022/07/06 11:26:45;;;;;;;3.00;1.10;;;;;;;22.10;40.44;102477.44;5113637;27;20031;-60